Time;durP1;ratioP1;P1;durP2;ratioP2;P2;SDS_P1;SDS_P2;PMS_P1;PMS_P2;Temp;Humidity;BMP_temperature;BMP_pressure;BME280_temperature;BME280_humidity;BME280_pressure;Samples;Min_cycle;Max_cycle;Signal;HPM_P1;HPM_P2
2023/01/10 00:00:48;;;;;;;0.40;0.30;;;8.80;99.90;;;;;;4996096;28;20644;-65
2023/01/10 00:03:15;;;;;;;0.57;0.30;;;8.70;99.90;;;;;;4996268;28;20212;-66
2023/01/10 00:05:41;;;;;;;0.40;0.30;;;8.70;99.90;;;;;;4995576;28;20234;-65
2023/01/10 00:08:09;;;;;;;2.93;0.67;;;8.60;99.90;;;;;;4996000;28;20258;-65
2023/01/10 00:10:36;;;;;;;2.07;1.50;;;8.70;99.90;;;;;;4995707;28;20207;-65
2023/01/10 00:15:48;;;;;;;1.13;0.70;;;8.50;99.90;;;;;;4995554;28;20198;-67
2023/01/10 00:18:15;;;;;;;1.07;0.70;;;8.50;99.90;;;;;;4995795;28;20207;-67
2023/01/10 00:20:44;;;;;;;0.90;0.70;;;8.50;99.90;;;;;;4995418;28;20211;-64
2023/01/10 00:23:11;;;;;;;1.40;0.60;;;8.60;99.90;;;;;;4995692;28;20234;-66
2023/01/10 00:25:38;;;;;;;0.97;0.53;;;8.60;99.90;;;;;;4995408;28;20235;-64
2023/01/10 00:28:09;;;;;;;0.70;0.60;;;8.60;99.90;;;;;;4995505;28;20727;-66
2023/01/10 00:30:38;;;;;;;2.17;0.90;;;8.60;99.90;;;;;;4994289;28;20302;-64
2023/01/10 00:33:07;;;;;;;0.60;0.43;;;8.50;99.90;;;;;;4994907;28;20208;-66
2023/01/10 00:35:34;;;;;;;1.17;0.40;;;8.50;99.90;;;;;;4995209;28;20210;-65
2023/01/10 00:38:04;;;;;;;0.63;0.50;;;8.60;99.90;;;;;;4995319;28;20613;-66
2023/01/10 00:40:31;;;;;;;1.40;0.60;;;8.60;99.90;;;;;;4995134;28;20215;-68
2023/01/10 00:45:44;;;;;;;1.03;0.50;;;8.60;99.90;;;;;;4994973;28;20362;-67
2023/01/10 00:48:13;;;;;;;0.63;0.63;;;8.60;99.90;;;;;;4994950;28;20676;-68
2023/01/10 00:50:39;;;;;;;1.07;1.03;;;8.70;99.90;;;;;;4994830;28;20203;-67
2023/01/10 00:53:07;;;;;;;0.70;0.70;;;8.60;99.90;;;;;;4995122;28;20211;-67
2023/01/10 00:55:34;;;;;;;1.67;0.80;;;8.70;99.90;;;;;;4994773;28;20208;-68
2023/01/10 00:58:01;;;;;;;1.00;0.80;;;8.60;99.90;;;;;;4994984;28;20359;-67
2023/01/10 01:00:28;;;;;;;1.97;0.73;;;8.70;99.90;;;;;;4994953;28;20212;-67
2023/01/10 01:02:56;;;;;;;1.10;1.00;;;8.70;99.90;;;;;;4994909;28;20211;-67
2023/01/10 01:05:24;;;;;;;1.67;0.97;;;8.60;99.90;;;;;;4994741;28;20232;-65
2023/01/10 01:07:52;;;;;;;2.10;0.70;;;8.60;99.90;;;;;;4994697;28;20228;-65
2023/01/10 01:10:28;;;;;;;1.50;0.90;;;8.70;99.90;;;;;;4994620;28;20215;-67
2023/01/10 01:12:56;;;;;;;3.07;1.00;;;8.70;99.90;;;;;;4994870;28;20211;-64
2023/01/10 01:15:23;;;;;;;2.10;0.90;;;8.70;99.90;;;;;;4994672;28;20211;-65
2023/01/10 01:17:50;;;;;;;0.70;0.70;;;8.70;99.90;;;;;;4994432;28;20236;-66
2023/01/10 01:20:17;;;;;;;1.60;1.00;;;8.80;99.90;;;;;;4995885;28;20212;-65
2023/01/10 01:22:45;;;;;;;1.07;0.97;;;8.80;99.90;;;;;;4995765;28;20220;-65
2023/01/10 01:25:12;;;;;;;0.87;0.83;;;8.80;99.90;;;;;;4995912;28;20223;-65
2023/01/10 01:27:38;;;;;;;1.60;1.20;;;8.80;99.90;;;;;;4995722;28;20258;-66
2023/01/10 01:30:07;;;;;;;3.93;1.40;;;8.70;99.90;;;;;;4995415;28;20211;-65
2023/01/10 01:32:33;;;;;;;1.20;1.10;;;8.60;99.90;;;;;;4994045;28;20216;-66
2023/01/10 01:35:00;;;;;;;3.77;1.10;;;8.60;99.90;;;;;;4994738;28;20215;-65
2023/01/10 01:37:27;;;;;;;2.27;1.07;;;8.60;99.90;;;;;;4994071;28;20746;-65
2023/01/10 01:39:55;;;;;;;1.43;1.27;;;8.60;99.90;;;;;;4994284;28;20207;-65
2023/01/10 01:42:27;;;;;;;1.63;1.10;;;8.60;99.90;;;;;;4993650;28;20282;-65
2023/01/10 01:45:35;;;;;;;1.73;1.20;;;8.70;99.90;;;;;;4994030;28;20231;-68
2023/01/10 01:48:09;;;;;;;1.27;1.10;;;8.70;99.90;;;;;;5033236;22;20230;-57
2023/01/10 01:50:40;;;;;;;1.20;1.10;;;8.70;99.90;;;;;;5034409;28;20581;-58
2023/01/10 01:53:11;;;;;;;2.23;1.20;;;8.80;99.90;;;;;;5034733;28;20198;-57
2023/01/10 01:55:41;;;;;;;1.20;1.10;;;8.80;99.90;;;;;;5034512;28;20206;-57
2023/01/10 01:58:15;;;;;;;1.27;1.17;;;8.70;99.90;;;;;;5034061;28;20561;-56
2023/01/10 02:00:42;;;;;;;2.07;1.50;;;8.80;99.90;;;;;;5034316;28;20190;-57
2023/01/10 02:03:09;;;;;;;2.57;1.40;;;8.80;99.90;;;;;;5034393;28;20210;-57
2023/01/10 02:05:40;;;;;;;3.20;1.03;;;8.80;99.90;;;;;;5034747;28;20226;-57
2023/01/10 02:08:07;;;;;;;1.70;1.13;;;8.70;99.90;;;;;;5034168;28;20230;-57
2023/01/10 02:10:41;;;;;;;2.83;1.13;;;8.70;99.90;;;;;;5033619;28;20206;-56
2023/01/10 02:13:13;;;;;;;2.17;0.97;;;8.70;99.90;;;;;;5033931;28;20218;-57
2023/01/10 02:15:40;;;;;;;2.03;1.00;;;8.60;99.90;;;;;;5034428;28;20198;-57
2023/01/10 02:18:08;;;;;;;1.37;0.90;;;8.60;99.90;;;;;;5033893;28;20587;-57
2023/01/10 02:20:45;;;;;;;2.70;0.90;;;8.50;99.90;;;;;;5034250;28;20214;-56
2023/01/10 02:23:55;;;;;;;1.40;0.80;;;8.50;99.90;;;;;;5034305;28;20240;-57
2023/01/10 02:27:11;;;;;;;1.67;0.80;;;8.50;99.90;;;;;;5033638;28;20237;-56
2023/01/10 02:30:31;;;;;;;1.33;0.57;;;8.50;99.90;;;;;;5034542;28;20210;-57
2023/01/10 02:33:06;;;;;;;1.03;0.70;;;8.20;99.90;;;;;;5035863;28;20241;-56
2023/01/10 02:35:56;;;;;;;1.10;0.60;;;8.10;99.90;;;;;;5035597;28;20206;-57
2023/01/10 02:38:34;;;;;;;1.70;0.93;;;8.10;99.90;;;;;;5033956;28;20294;-57
2023/01/10 02:41:08;;;;;;;1.17;0.57;;;8.10;99.90;;;;;;5033748;28;20264;-57
2023/01/10 02:43:39;;;;;;;2.40;0.70;;;8.20;99.90;;;;;;5033714;28;20734;-57
2023/01/10 02:46:11;;;;;;;1.37;0.80;;;8.30;99.90;;;;;;5033370;28;20417;-57
2023/01/10 02:48:39;;;;;;;0.93;0.77;;;8.30;99.90;;;;;;5034156;28;20272;-57
2023/01/10 02:51:17;;;;;;;0.90;0.80;;;8.30;99.90;;;;;;5034007;28;20621;-57
2023/01/10 02:53:48;;;;;;;1.10;0.83;;;8.30;99.90;;;;;;5033834;28;20578;-57
2023/01/10 02:56:48;;;;;;;0.97;0.73;;;8.20;99.90;;;;;;5033548;28;20214;-56
2023/01/10 02:59:35;;;;;;;1.47;1.00;;;8.20;99.90;;;;;;5033642;28;20214;-57
2023/01/10 03:02:10;;;;;;;2.20;0.83;;;8.10;99.90;;;;;;5033915;28;20238;-57
2023/01/10 03:04:44;;;;;;;0.90;0.73;;;8.20;99.90;;;;;;5034101;28;20209;-56
2023/01/10 03:07:26;;;;;;;1.43;1.10;;;8.10;99.90;;;;;;5033748;28;20225;-56
2023/01/10 03:09:56;;;;;;;3.03;0.90;;;8.20;99.90;;;;;;5033633;28;20210;-56
2023/01/10 03:12:28;;;;;;;1.40;0.83;;;8.20;99.90;;;;;;5033313;28;20206;-56
2023/01/10 03:14:57;;;;;;;2.33;1.10;;;8.20;99.90;;;;;;5033555;28;20218;-57
2023/01/10 03:17:25;;;;;;;1.47;0.90;;;8.20;99.90;;;;;;5032909;28;20226;-57
2023/01/10 03:19:58;;;;;;;1.53;0.80;;;8.30;99.90;;;;;;5033127;28;20206;-58
2023/01/10 03:22:28;;;;;;;2.70;1.00;;;8.20;99.90;;;;;;5032840;28;20212;-57
2023/01/10 03:24:57;;;;;;;5.20;0.90;;;8.20;99.90;;;;;;5033045;28;20584;-57
2023/01/10 03:27:32;;;;;;;1.80;0.80;;;8.30;99.90;;;;;;5032827;28;20230;-57
2023/01/10 03:30:05;;;;;;;4.30;1.30;;;8.20;99.90;;;;;;5032943;28;20221;-57
2023/01/10 03:32:32;;;;;;;2.23;1.10;;;8.20;99.90;;;;;;5032491;28;20264;-57
2023/01/10 03:35:02;;;;;;;2.03;1.30;;;8.00;99.90;;;;;;5032637;28;20634;-57
2023/01/10 03:37:36;;;;;;;3.60;1.00;;;7.90;99.90;;;;;;5032851;28;20226;-57
2023/01/10 03:40:09;;;;;;;3.80;1.40;;;7.80;99.90;;;;;;5033589;28;20210;-57
2023/01/10 03:45:34;;;;;;;1.60;0.83;;;7.80;99.90;;;;;;5033585;28;20225;-56
2023/01/10 03:48:05;;;;;;;3.03;1.00;;;7.70;99.90;;;;;;5033497;28;20230;-57
2023/01/10 03:50:34;;;;;;;1.67;1.10;;;7.60;99.90;;;;;;5033444;28;20203;-57
2023/01/10 03:53:01;;;;;;;2.17;1.17;;;7.60;99.90;;;;;;5032368;28;20203;-57
2023/01/10 03:55:29;;;;;;;4.67;1.30;;;7.60;99.90;;;;;;5032476;28;20649;-57
2023/01/10 03:57:56;;;;;;;2.47;1.10;;;7.60;99.90;;;;;;5032563;28;20230;-57
2023/01/10 04:00:24;;;;;;;1.93;1.00;;;7.60;99.90;;;;;;5032617;28;20654;-58
2023/01/10 04:02:51;;;;;;;3.43;1.13;;;7.60;99.90;;;;;;5032627;28;20214;-57
2023/01/10 04:05:18;;;;;;;3.17;1.40;;;7.60;99.90;;;;;;5033279;28;20709;-57
2023/01/10 04:07:48;;;;;;;5.27;1.20;;;7.70;99.90;;;;;;5036280;28;20234;-57
2023/01/10 04:10:15;;;;;;;5.17;1.53;;;7.80;99.90;;;;;;5036724;28;20210;-57
2023/01/10 04:12:43;;;;;;;1.77;1.40;;;7.80;99.90;;;;;;5035941;28;20285;-57
2023/01/10 04:15:10;;;;;;;3.00;1.20;;;7.80;99.90;;;;;;5036234;28;20666;-57
2023/01/10 04:17:37;;;;;;;4.23;1.70;;;7.80;99.90;;;;;;5036261;28;20588;-57
2023/01/10 04:20:04;;;;;;;3.90;1.43;;;7.80;99.90;;;;;;5036482;28;20238;-58
2023/01/10 04:22:31;;;;;;;3.57;1.27;;;7.80;99.90;;;;;;5036594;28;20209;-57
2023/01/10 04:24:59;;;;;;;2.13;1.00;;;7.80;99.90;;;;;;5036429;28;20213;-57
2023/01/10 04:27:26;;;;;;;4.93;1.63;;;7.80;99.90;;;;;;5036029;28;20234;-57
2023/01/10 04:29:53;;;;;;;3.70;1.40;;;7.80;99.90;;;;;;5036334;28;20210;-56
2023/01/10 04:32:19;;;;;;;2.77;1.33;;;7.80;99.90;;;;;;5035959;28;20211;-57
2023/01/10 04:34:46;;;;;;;2.50;1.20;;;7.80;99.90;;;;;;5036551;28;20314;-57
2023/01/10 04:37:13;;;;;;;2.40;1.40;;;7.70;99.90;;;;;;5036519;28;20756;-57
2023/01/10 04:39:40;;;;;;;3.73;1.53;;;7.80;99.90;;;;;;5036117;28;20213;-57
2023/01/10 04:42:08;;;;;;;5.50;1.80;;;7.80;99.90;;;;;;5035886;28;20249;-57
2023/01/10 04:44:35;;;;;;;6.67;1.83;;;7.80;99.90;;;;;;5035827;28;20202;-57
2023/01/10 04:47:01;;;;;;;2.63;1.50;;;7.90;99.90;;;;;;5035221;28;20238;-57
2023/01/10 04:49:28;;;;;;;2.13;1.40;;;7.90;99.90;;;;;;5035756;28;20206;-58
2023/01/10 04:51:55;;;;;;;4.17;1.70;;;7.90;99.90;;;;;;5035526;28;20221;-57
2023/01/10 04:54:22;;;;;;;4.13;1.63;;;7.90;99.90;;;;;;5035265;28;20252;-57
2023/01/10 04:56:49;;;;;;;2.43;1.33;;;7.80;99.90;;;;;;5035199;28;20224;-57
2023/01/10 04:59:17;;;;;;;2.50;1.40;;;7.90;99.90;;;;;;5035102;28;20301;-57
2023/01/10 05:01:44;;;;;;;2.73;1.47;;;7.90;99.90;;;;;;5035056;28;20572;-58
2023/01/10 05:04:11;;;;;;;3.30;1.30;;;7.90;99.90;;;;;;5035242;28;20205;-57
2023/01/10 05:06:38;;;;;;;3.13;1.60;;;7.90;99.90;;;;;;5035413;28;20612;-55
2023/01/10 05:09:05;;;;;;;5.23;1.80;;;7.90;99.90;;;;;;5035333;28;20206;-56
2023/01/10 05:11:32;;;;;;;5.47;1.60;;;7.90;99.90;;;;;;5035373;28;20210;-56
2023/01/10 05:13:59;;;;;;;4.23;1.60;;;8.00;99.90;;;;;;5035105;28;20206;-57
2023/01/10 05:16:27;;;;;;;5.03;1.90;;;8.00;99.90;;;;;;5035019;28;20210;-57
2023/01/10 05:18:54;;;;;;;6.83;1.83;;;8.00;99.90;;;;;;5034453;28;20217;-57
2023/01/10 05:21:21;;;;;;;3.60;1.90;;;8.00;99.90;;;;;;5034500;28;20689;-57
2023/01/10 05:23:47;;;;;;;6.27;2.30;;;7.90;99.90;;;;;;5035195;28;20213;-57
2023/01/10 05:26:16;;;;;;;4.53;1.80;;;7.90;99.90;;;;;;5034472;28;20233;-57
2023/01/10 05:28:44;;;;;;;3.90;1.87;;;7.80;99.90;;;;;;5035409;28;20226;-63
2023/01/10 05:31:13;;;;;;;6.93;2.27;;;7.80;99.90;;;;;;5034720;28;20293;-57
2023/01/10 05:33:44;;;;;;;6.67;1.83;;;7.80;99.90;;;;;;5034594;28;20207;-58
2023/01/10 05:36:11;;;;;;;10.30;2.50;;;7.70;99.90;;;;;;5035277;28;20233;-57
2023/01/10 05:38:38;;;;;;;4.77;2.00;;;7.70;99.90;;;;;;5035087;28;20580;-57
2023/01/10 05:41:05;;;;;;;6.23;1.90;;;7.60;99.90;;;;;;5034548;28;20229;-57
2023/01/10 05:43:32;;;;;;;8.70;2.00;;;7.60;99.90;;;;;;5034921;28;20202;-57
2023/01/10 05:45:59;;;;;;;6.80;1.90;;;7.50;99.90;;;;;;5035301;28;20226;-56
2023/01/10 05:48:25;;;;;;;4.67;2.10;;;7.50;99.90;;;;;;5035294;28;20679;-57
2023/01/10 05:50:54;;;;;;;11.23;2.80;;;7.50;99.90;;;;;;5035387;28;20208;-57
2023/01/10 05:53:21;;;;;;;8.83;2.30;;;7.60;99.90;;;;;;5035745;28;20280;-56
2023/01/10 05:55:53;;;;;;;8.33;2.10;;;7.60;99.90;;;;;;5034897;28;20213;-57
2023/01/10 05:58:20;;;;;;;11.67;2.43;;;7.60;99.90;;;;;;5034198;28;20600;-58
2023/01/10 06:00:46;;;;;;;6.30;2.07;;;7.60;99.90;;;;;;5034771;28;20214;-56
2023/01/10 06:03:13;;;;;;;8.53;2.20;;;7.60;99.90;;;;;;5034036;28;20245;-57
2023/01/10 06:05:40;;;;;;;7.80;2.20;;;7.60;99.90;;;;;;5034734;28;20214;-56
2023/01/10 06:08:08;;;;;;;11.63;2.40;;;7.60;99.90;;;;;;5034680;28;20237;-57
2023/01/10 06:10:35;;;;;;;7.50;2.10;;;7.60;99.90;;;;;;5034863;28;20209;-56
2023/01/10 06:13:03;;;;;;;6.37;2.03;;;7.60;99.90;;;;;;5033991;28;20770;-56
2023/01/10 06:15:30;;;;;;;8.30;2.70;;;7.50;99.90;;;;;;5034689;28;20210;-57
2023/01/10 06:17:57;;;;;;;8.23;2.90;;;7.50;99.90;;;;;;5033974;28;20226;-57
2023/01/10 06:20:23;;;;;;;16.40;2.40;;;7.60;99.90;;;;;;5033931;28;20213;-57
2023/01/10 06:22:50;;;;;;;9.07;2.00;;;7.60;99.90;;;;;;5033631;28;20214;-57
2023/01/10 06:25:18;;;;;;;8.67;2.20;;;7.60;99.90;;;;;;5035909;28;20216;-57
2023/01/10 06:27:45;;;;;;;6.73;2.17;;;7.60;99.90;;;;;;5035582;28;20329;-58
2023/01/10 06:30:14;;;;;;;7.67;2.03;;;7.60;99.90;;;;;;5035005;28;20221;-57
2023/01/10 06:32:41;;;;;;;8.70;2.20;;;7.60;99.90;;;;;;5033667;28;20210;-57
2023/01/10 06:35:08;;;;;;;7.43;2.20;;;7.70;99.90;;;;;;5033951;28;20225;-56
2023/01/10 06:37:35;;;;;;;9.53;2.73;;;7.70;99.90;;;;;;5034140;28;20225;-57
2023/01/10 06:40:02;;;;;;;12.43;2.53;;;7.80;99.90;;;;;;5033723;28;20217;-57
2023/01/10 06:42:30;;;;;;;9.57;2.30;;;7.70;99.90;;;;;;5033724;28;20214;-57
2023/01/10 06:44:57;;;;;;;15.63;7.57;;;7.80;99.90;;;;;;5034166;28;20212;-57
2023/01/10 06:47:24;;;;;;;8.17;2.13;;;7.80;99.90;;;;;;5033314;28;20230;-57
2023/01/10 06:49:50;;;;;;;9.97;2.57;;;7.80;99.90;;;;;;5033586;28;20229;-57
2023/01/10 06:52:17;;;;;;;9.23;2.30;;;7.70;99.90;;;;;;5033095;28;20241;-57
2023/01/10 06:54:44;;;;;;;10.20;2.77;;;7.60;99.90;;;;;;5033717;28;20202;-57
2023/01/10 06:57:11;;;;;;;6.77;2.20;;;7.60;99.90;;;;;;5033510;28;20276;-56
2023/01/10 06:59:39;;;;;;;9.83;2.20;;;7.70;99.90;;;;;;5032980;28;20679;-57
2023/01/10 07:02:06;;;;;;;13.97;2.63;;;7.70;99.90;;;;;;5033375;28;20253;-56
2023/01/10 07:04:33;;;;;;;11.67;2.73;;;7.60;99.90;;;;;;5033732;28;20221;-57
2023/01/10 07:07:00;;;;;;;7.37;2.47;;;7.70;99.90;;;;;;5033383;28;20233;-58
2023/01/10 07:09:28;;;;;;;8.90;1.90;;;7.70;99.90;;;;;;5033261;28;20265;-57
2023/01/10 07:11:55;;;;;;;5.83;2.17;;;7.70;99.90;;;;;;5033221;28;20206;-56
2023/01/10 07:14:22;;;;;;;11.80;2.40;;;7.80;99.90;;;;;;5033698;28;20678;-57
2023/01/10 07:16:50;;;;;;;7.00;1.67;;;7.80;99.90;;;;;;5033502;28;20321;-57
2023/01/10 07:19:18;;;;;;;9.67;2.13;;;7.70;99.90;;;;;;5033600;28;20213;-57
2023/01/10 07:21:45;;;;;;;10.00;2.03;;;7.60;99.90;;;;;;5033754;28;20638;-57
2023/01/10 07:24:12;;;;;;;7.97;2.17;;;7.40;99.90;;;;;;5033773;28;20213;-57
2023/01/10 07:26:39;;;;;;;5.33;2.07;;;7.50;99.90;;;;;;5033525;28;20230;-56
2023/01/10 07:29:06;;;;;;;7.83;2.17;;;7.50;99.90;;;;;;5033111;28;20213;-57
2023/01/10 07:31:33;;;;;;;7.57;2.50;;;7.60;99.90;;;;;;5032733;28;20213;-57
2023/01/10 07:34:01;;;;;;;6.47;2.30;;;7.50;99.90;;;;;;5032812;28;20220;-56
2023/01/10 07:36:28;;;;;;;7.10;2.80;;;7.60;99.90;;;;;;5032904;28;20209;-56
2023/01/10 07:38:55;;;;;;;11.43;2.60;;;7.60;99.90;;;;;;5032809;28;20206;-57
2023/01/10 07:41:22;;;;;;;6.30;2.80;;;7.70;99.90;;;;;;5035454;28;20697;-57
2023/01/10 07:43:48;;;;;;;9.47;2.60;;;7.80;99.90;;;;;;5037489;28;20202;-57
2023/01/10 07:46:15;;;;;;;9.60;2.80;;;7.90;99.90;;;;;;5038182;28;20237;-57
2023/01/10 07:48:42;;;;;;;8.60;2.37;;;7.90;99.90;;;;;;5039228;28;20260;-57
2023/01/10 07:51:10;;;;;;;10.57;3.57;;;7.90;99.90;;;;;;5038381;28;20214;-57
2023/01/10 07:53:38;;;;;;;10.23;3.50;;;8.00;99.90;;;;;;5037091;28;20233;-58
2023/01/10 07:56:05;;;;;;;10.63;2.10;;;8.00;99.90;;;;;;5036282;28;20206;-56
2023/01/10 07:58:33;;;;;;;12.87;2.27;;;8.10;99.90;;;;;;5035687;28;20226;-56
2023/01/10 08:01:00;;;;;;;11.43;2.73;;;8.10;99.90;;;;;;5036277;28;20304;-56
2023/01/10 08:03:28;;;;;;;10.87;2.40;;;8.10;99.90;;;;;;5036220;28;20210;-56
2023/01/10 08:05:59;;;;;;;9.53;2.60;;;8.10;99.90;;;;;;5036116;28;20268;-57
2023/01/10 08:08:28;;;;;;;9.10;2.67;;;8.20;99.90;;;;;;5035837;28;20280;-57
2023/01/10 08:10:55;;;;;;;10.23;2.17;;;8.20;99.90;;;;;;5036043;28;20733;-57
2023/01/10 08:13:22;;;;;;;11.00;2.10;;;8.20;99.90;;;;;;5035843;28;20210;-57
2023/01/10 08:15:50;;;;;;;11.90;3.73;;;8.30;99.90;;;;;;5036007;28;20207;-56
2023/01/10 08:18:17;;;;;;;5.07;2.07;;;8.40;99.90;;;;;;5035823;28;20276;-56
2023/01/10 08:20:46;;;;;;;10.07;2.57;;;8.50;99.90;;;;;;5035574;28;20237;-55
2023/01/10 08:23:13;;;;;;;12.93;2.70;;;8.60;99.90;;;;;;5035326;28;20296;-56
2023/01/10 08:25:41;;;;;;;9.00;2.60;;;8.60;99.90;;;;;;5035514;28;20301;-56
2023/01/10 08:28:08;;;;;;;8.10;2.73;;;8.60;99.90;;;;;;5035497;28;20238;-57
2023/01/10 08:30:35;;;;;;;7.13;2.53;;;8.60;99.90;;;;;;5036033;28;20206;-56
2023/01/10 08:33:02;;;;;;;6.90;2.37;;;8.70;99.90;;;;;;5035339;28;20218;-56
2023/01/10 08:35:29;;;;;;;8.17;3.00;;;8.80;99.90;;;;;;5035141;28;20242;-57
2023/01/10 08:37:58;;;;;;;11.07;3.57;;;8.90;99.90;;;;;;5035509;28;20226;-57
2023/01/10 08:40:25;;;;;;;12.90;3.27;;;8.90;99.90;;;;;;5035255;28;20210;-56
2023/01/10 08:42:58;;;;;;;13.00;4.20;;;8.90;99.90;;;;;;5035007;28;20691;-57
2023/01/10 08:45:25;;;;;;;16.53;4.17;;;8.80;99.90;;;;;;5034912;28;20210;-57
2023/01/10 08:47:52;;;;;;;9.70;4.00;;;8.90;99.90;;;;;;5034810;28;20234;-57
2023/01/10 08:50:19;;;;;;;12.90;3.80;;;8.90;99.90;;;;;;5034909;28;20631;-56
2023/01/10 08:52:46;;;;;;;10.87;4.13;;;8.90;99.90;;;;;;5033203;28;20202;-56
2023/01/10 08:55:13;;;;;;;11.83;3.67;;;8.90;99.90;;;;;;5034892;28;20213;-57
2023/01/10 08:57:39;;;;;;;10.50;4.07;;;9.00;99.90;;;;;;5034607;28;20218;-57
2023/01/10 09:00:10;;;;;;;10.23;2.83;;;9.10;99.90;;;;;;5034541;28;20602;-55
2023/01/10 09:02:38;;;;;;;9.87;2.80;;;9.20;99.90;;;;;;5034639;28;20297;-55
2023/01/10 09:05:06;;;;;;;8.37;2.27;;;9.20;99.90;;;;;;5034265;28;20217;-56
2023/01/10 09:07:33;;;;;;;6.27;2.37;;;9.20;99.90;;;;;;5034932;28;20238;-57
2023/01/10 09:09:59;;;;;;;6.57;2.33;;;9.20;99.90;;;;;;5034809;28;20210;-57
2023/01/10 09:15:09;;;;;;;7.07;2.40;;;9.20;99.90;;;;;;5021664;28;20662;-57
2023/01/10 09:17:36;;;;;;;8.97;2.30;;;9.20;99.90;;;;;;5034366;28;20222;-57
2023/01/10 09:20:05;;;;;;;9.10;2.33;;;9.20;99.90;;;;;;5034595;28;20214;-57
2023/01/10 09:22:32;;;;;;;8.10;2.77;;;9.30;99.90;;;;;;5034127;28;20509;-56
2023/01/10 09:24:58;;;;;;;6.50;2.03;;;9.40;99.90;;;;;;5034385;28;20206;-56
2023/01/10 09:27:25;;;;;;;11.17;2.30;;;9.50;99.90;;;;;;5034298;28;20269;-57
2023/01/10 09:29:52;;;;;;;12.37;2.37;;;9.50;99.90;;;;;;5034109;28;20206;-57
2023/01/10 09:32:20;;;;;;;7.20;2.33;;;9.60;99.90;;;;;;5033841;28;20686;-57
2023/01/10 09:34:47;;;;;;;10.03;2.47;;;9.70;99.90;;;;;;5034504;28;20601;-58
2023/01/10 09:37:13;;;;;;;8.83;2.70;;;9.70;99.90;;;;;;5034022;28;20312;-57
2023/01/10 09:39:40;;;;;;;9.83;3.07;;;9.80;99.90;;;;;;5034507;28;20214;-57
2023/01/10 09:42:21;;;;;;;8.37;3.00;;;9.90;99.90;;;;;;5034842;28;20206;-57
2023/01/10 09:44:55;;;;;;;11.73;2.60;;;10.00;99.90;;;;;;5034282;28;20209;-56
2023/01/10 09:47:33;;;;;;;9.23;2.87;;;10.00;99.90;;;;;;5033704;28;20237;-57
2023/01/10 09:50:14;;;;;;;9.40;2.90;;;10.10;99.90;;;;;;5033787;28;20206;-57
2023/01/10 09:52:45;;;;;;;7.60;3.10;;;10.20;99.90;;;;;;5033583;28;20245;-57
2023/01/10 09:55:21;;;;;;;10.23;3.40;;;10.20;99.90;;;;;;5033560;28;20217;-57
2023/01/10 09:57:49;;;;;;;9.10;3.73;;;10.20;99.90;;;;;;5033356;28;20222;-57
2023/01/10 10:00:19;;;;;;;11.20;3.63;;;10.20;99.90;;;;;;5033818;28;20206;-57
2023/01/10 10:02:51;;;;;;;12.90;3.83;;;10.30;99.90;;;;;;5033326;28;20211;-57
2023/01/10 10:05:20;;;;;;;11.57;3.80;;;10.40;99.90;;;;;;5033101;28;20222;-56
2023/01/10 10:07:52;;;;;;;7.63;3.23;;;10.40;99.90;;;;;;5033083;28;20230;-56
2023/01/10 10:10:24;;;;;;;6.83;2.70;;;10.30;99.90;;;;;;5033128;28;20701;-56
2023/01/10 10:13:00;;;;;;;12.03;2.83;;;10.30;99.90;;;;;;5032862;28;20204;-56
2023/01/10 10:15:36;;;;;;;10.23;3.20;;;10.30;99.90;;;;;;5033372;28;20284;-56
2023/01/10 10:18:18;;;;;;;7.83;2.20;;;10.30;99.90;;;;;;5032960;28;20300;-56
2023/01/10 10:20:53;;;;;;;9.03;2.10;;;10.20;99.90;;;;;;5033328;28;20210;-56
2023/01/10 10:23:41;;;;;;;5.60;1.70;;;10.00;99.90;;;;;;5032649;28;20210;-56
2023/01/10 10:26:17;;;;;;;9.47;2.03;;;9.90;99.90;;;;;;5033093;28;20206;-56
2023/01/10 10:29:09;;;;;;;9.33;2.17;;;9.80;99.90;;;;;;5032638;28;20226;-56
2023/01/10 10:31:50;;;;;;;6.03;2.10;;;9.90;99.90;;;;;;5032625;28;20217;-56
2023/01/10 10:34:24;;;;;;;4.97;1.77;;;9.90;99.90;;;;;;5032589;28;20221;-57
2023/01/10 10:36:54;;;;;;;9.40;2.20;;;9.90;99.90;;;;;;5032305;28;20249;-56
2023/01/10 10:39:34;;;;;;;5.80;1.90;;;10.00;99.90;;;;;;5032744;28;20636;-56
2023/01/10 10:42:02;;;;;;;4.47;1.77;;;10.00;99.90;;;;;;5032601;28;20217;-56
2023/01/10 10:44:35;;;;;;;5.17;1.93;;;10.00;99.90;;;;;;5032684;28;20237;-56
2023/01/10 10:47:02;;;;;;;4.77;1.80;;;10.00;99.90;;;;;;5032455;28;20321;-57
2023/01/10 10:49:39;;;;;;;10.07;2.63;;;10.10;99.90;;;;;;5032723;28;20209;-57
2023/01/10 10:52:14;;;;;;;5.90;1.90;;;10.20;99.90;;;;;;5032410;28;20205;-56
2023/01/10 10:54:40;;;;;;;7.40;1.80;;;10.30;99.90;;;;;;5032471;28;20206;-57
2023/01/10 10:57:08;;;;;;;7.30;3.17;;;10.20;99.90;;;;;;5032418;28;20223;-57
2023/01/10 10:59:35;;;;;;;7.20;2.20;;;10.20;99.90;;;;;;5032202;28;20217;-57
2023/01/10 11:02:02;;;;;;;4.57;1.67;;;10.20;99.90;;;;;;5032003;28;20658;-57
2023/01/10 11:04:30;;;;;;;7.97;2.10;;;10.10;99.90;;;;;;5032366;28;20209;-57
2023/01/10 11:07:00;;;;;;;7.07;2.00;;;10.00;99.90;;;;;;5032324;28;20229;-57
2023/01/10 11:09:31;;;;;;;5.60;2.57;;;10.00;99.90;;;;;;5032086;28;20732;-57
2023/01/10 11:11:58;;;;;;;5.97;2.47;;;10.00;99.90;;;;;;5032086;28;20234;-56
2023/01/10 11:14:42;;;;;;;5.50;2.43;;;10.10;99.90;;;;;;5032119;28;20590;-56
2023/01/10 11:17:19;;;;;;;5.97;2.03;;;10.10;99.90;;;;;;5031837;28;20230;-55
2023/01/10 11:19:55;;;;;;;6.60;2.33;;;10.10;99.90;;;;;;5032324;28;20210;-57
2023/01/10 11:22:24;;;;;;;5.77;1.90;;;10.10;99.90;;;;;;5032124;28;20297;-56
2023/01/10 11:24:55;;;;;;;6.93;2.03;;;9.90;99.90;;;;;;5031870;28;20674;-56
2023/01/10 11:27:24;;;;;;;5.70;2.20;;;9.80;99.90;;;;;;5032175;28;20238;-56
2023/01/10 11:29:55;;;;;;;6.43;1.50;;;9.70;99.90;;;;;;5032659;28;20206;-56
2023/01/10 11:32:30;;;;;;;6.73;1.60;;;9.80;99.90;;;;;;5032239;28;20210;-56
2023/01/10 11:35:00;;;;;;;4.27;1.60;;;9.80;99.90;;;;;;5032109;28;20212;-56
2023/01/10 11:37:31;;;;;;;4.13;1.70;;;9.80;99.90;;;;;;5032257;28;20230;-56
2023/01/10 11:40:25;;;;;;;6.13;1.87;;;9.80;99.90;;;;;;5032060;28;20206;-56
2023/01/10 11:42:54;;;;;;;4.73;1.70;;;9.80;99.90;;;;;;4986253;28;20203;-57
2023/01/10 11:45:25;;;;;;;4.93;1.70;;;9.90;99.90;;;;;;5032405;28;20248;-56
2023/01/10 11:47:55;;;;;;;5.03;2.00;;;10.00;99.90;;;;;;5031887;28;20665;-56
2023/01/10 11:50:24;;;;;;;6.30;2.00;;;10.10;99.90;;;;;;5032926;28;20214;-56
2023/01/10 11:52:53;;;;;;;9.17;3.67;;;10.20;99.90;;;;;;5032398;28;20528;-57
2023/01/10 11:55:23;;;;;;;5.50;2.27;;;10.30;99.90;;;;;;5032936;28;20206;-57
2023/01/10 11:57:59;;;;;;;4.43;1.77;;;10.50;99.90;;;;;;5032801;28;20277;-57
2023/01/10 12:00:33;;;;;;;7.07;2.60;;;10.70;99.90;;;;;;5032673;28;20210;-57
2023/01/10 12:03:00;;;;;;;7.33;2.30;;;10.80;99.90;;;;;;5031921;28;20210;-57
2023/01/10 12:05:27;;;;;;;5.07;1.60;;;10.90;99.90;;;;;;5031899;28;20260;-57
2023/01/10 12:07:57;;;;;;;6.03;1.73;;;10.90;99.90;;;;;;5032650;28;20236;-57
2023/01/10 12:10:25;;;;;;;5.83;2.13;;;10.80;99.90;;;;;;5033648;28;20348;-64
2023/01/10 12:12:56;;;;;;;5.20;1.83;;;10.80;99.90;;;;;;5032660;28;20203;-57
2023/01/10 12:15:25;;;;;;;4.73;1.63;;;10.80;99.90;;;;;;5033093;28;20221;-56
2023/01/10 12:17:54;;;;;;;6.17;2.30;;;10.80;99.90;;;;;;5032288;28;20279;-56
2023/01/10 12:20:23;;;;;;;5.77;2.20;;;10.70;99.90;;;;;;5032527;28;20297;-56
2023/01/10 12:22:55;;;;;;;9.97;4.57;;;10.70;99.90;;;;;;5031973;28;20221;-56
2023/01/10 12:25:34;;;;;;;4.47;1.70;;;10.60;99.90;;;;;;5032658;28;20674;-56
2023/01/10 12:28:01;;;;;;;5.97;2.00;;;10.50;99.90;;;;;;5034966;28;20237;-55
2023/01/10 12:30:31;;;;;;;6.73;2.33;;;10.30;99.90;;;;;;5035785;28;20218;-55
2023/01/10 12:33:02;;;;;;;9.13;2.23;;;10.10;99.90;;;;;;5035996;28;20268;-57
2023/01/10 12:35:42;;;;;;;6.43;1.90;;;9.90;99.90;;;;;;5035964;28;20591;-55
2023/01/10 12:38:24;;;;;;;5.17;1.70;;;9.80;99.90;;;;;;5036253;28;20222;-56
2023/01/10 12:40:58;;;;;;;6.33;2.10;;;9.60;99.90;;;;;;5036725;28;20260;-56
2023/01/10 12:46:24;;;;;;;6.80;2.53;;;9.40;99.90;;;;;;5035985;28;20256;-56
2023/01/10 12:49:01;;;;;;;6.37;2.60;;;9.30;99.90;;;;;;5036302;28;20766;-55
2023/01/10 12:51:29;;;;;;;7.10;2.87;;;9.30;99.90;;;;;;5036310;28;20670;-56
2023/01/10 12:54:00;;;;;;;9.13;2.50;;;9.30;99.90;;;;;;5036171;28;20213;-56
2023/01/10 12:56:29;;;;;;;5.47;1.77;;;9.40;99.90;;;;;;5037036;28;20206;-56
2023/01/10 12:59:00;;;;;;;6.23;2.13;;;9.60;99.90;;;;;;5037392;28;20736;-56
2023/01/10 13:01:30;;;;;;;4.33;1.80;;;9.90;99.90;;;;;;5037434;28;20210;-56
2023/01/10 13:04:01;;;;;;;6.43;1.90;;;10.10;99.90;;;;;;5036692;28;20206;-56
2023/01/10 13:06:32;;;;;;;7.73;1.60;;;10.20;99.90;;;;;;5036123;28;20203;-56
2023/01/10 13:09:03;;;;;;;5.27;1.73;;;10.40;99.90;;;;;;5035802;28;20225;-56
2023/01/10 13:11:39;;;;;;;5.10;2.03;;;10.50;99.90;;;;;;5036946;28;20585;-55
2023/01/10 13:14:11;;;;;;;4.33;1.80;;;10.50;99.90;;;;;;5036250;28;20202;-55
2023/01/10 13:16:47;;;;;;;4.97;2.10;;;10.60;99.90;;;;;;5036031;28;20644;-55
2023/01/10 13:19:25;;;;;;;5.77;2.10;;;10.60;99.90;;;;;;5035765;28;20190;-55
2023/01/10 13:22:18;;;;;;;5.70;1.80;;;10.60;99.90;;;;;;5035864;28;20202;-55